sensor_id;sensor_type;location;lat;lon;timestamp;P1;durP1;ratioP1;P2;durP2;ratioP2
76636;SDS011;65532;52.124;5.480;2023-03-01T00:01:15;7.55;;;2.65;;
76636;SDS011;65532;52.124;5.480;2023-03-01T00:03:44;6.53;;;3.90;;
76636;SDS011;65532;52.124;5.480;2023-03-01T00:06:11;9.10;;;4.72;;
76636;SDS011;65532;52.124;5.480;2023-03-01T00:08:37;6.65;;;4.57;;
76636;SDS011;65532;52.124;5.480;2023-03-01T00:11:14;8.88;;;2.78;;
76636;SDS011;65532;52.124;5.480;2023-03-01T00:13:41;6.78;;;2.40;;
76636;SDS011;65532;52.124;5.480;2023-03-01T00:16:10;6.55;;;4.32;;
76636;SDS011;65532;52.124;5.480;2023-03-01T00:18:41;8.10;;;4.97;;
76636;SDS011;65532;52.124;5.480;2023-03-01T00:21:08;6.65;;;3.40;;
76636;SDS011;65532;52.124;5.480;2023-03-01T00:23:35;7.00;;;5.32;;
76636;SDS011;65532;52.124;5.480;2023-03-01T00:26:05;6.72;;;4.45;;
76636;SDS011;65532;52.124;5.480;2023-03-01T00:28:32;12.30;;;4.38;;
76636;SDS011;65532;52.124;5.480;2023-03-01T00:31:05;4.85;;;2.83;;
76636;SDS011;65532;52.124;5.480;2023-03-01T00:33:37;6.40;;;4.88;;
76636;SDS011;65532;52.124;5.480;2023-03-01T00:36:04;7.47;;;3.90;;
76636;SDS011;65532;52.124;5.480;2023-03-01T00:38:38;7.55;;;4.10;;
76636;SDS011;65532;52.124;5.480;2023-03-01T00:41:10;8.38;;;4.40;;
76636;SDS011;65532;52.124;5.480;2023-03-01T00:43:38;6.10;;;3.03;;
76636;SDS011;65532;52.124;5.480;2023-03-01T00:46:06;6.93;;;3.45;;
76636;SDS011;65532;52.124;5.480;2023-03-01T00:48:37;9.45;;;4.22;;
76636;SDS011;65532;52.124;5.480;2023-03-01T00:51:07;5.93;;;2.53;;
76636;SDS011;65532;52.124;5.480;2023-03-01T00:53:35;9.35;;;5.68;;
76636;SDS011;65532;52.124;5.480;2023-03-01T00:56:03;10.35;;;4.55;;
76636;SDS011;65532;52.124;5.480;2023-03-01T00:58:31;9.35;;;4.60;;
76636;SDS011;65532;52.124;5.480;2023-03-01T01:00:58;6.53;;;4.53;;
76636;SDS011;65532;52.124;5.480;2023-03-01T01:03:24;9.25;;;4.88;;
76636;SDS011;65532;52.124;5.480;2023-03-01T01:05:52;8.60;;;4.72;;
76636;SDS011;65532;52.124;5.480;2023-03-01T01:08:19;6.03;;;3.42;;
76636;SDS011;65532;52.124;5.480;2023-03-01T01:10:46;7.15;;;3.10;;
76636;SDS011;65532;52.124;5.480;2023-03-01T01:13:13;4.13;;;2.38;;
76636;SDS011;65532;52.124;5.480;2023-03-01T01:15:40;8.20;;;4.50;;
76636;SDS011;65532;52.124;5.480;2023-03-01T01:18:07;6.28;;;3.95;;
76636;SDS011;65532;52.124;5.480;2023-03-01T01:20:34;7.07;;;3.95;;
76636;SDS011;65532;52.124;5.480;2023-03-01T01:23:01;7.05;;;4.60;;
76636;SDS011;65532;52.124;5.480;2023-03-01T01:25:28;5.63;;;5.00;;
76636;SDS011;65532;52.124;5.480;2023-03-01T01:27:54;9.63;;;3.45;;
76636;SDS011;65532;52.124;5.480;2023-03-01T01:30:21;5.63;;;3.25;;
76636;SDS011;65532;52.124;5.480;2023-03-01T01:32:48;7.60;;;4.45;;
76636;SDS011;65532;52.124;5.480;2023-03-01T01:35:14;7.45;;;4.35;;
76636;SDS011;65532;52.124;5.480;2023-03-01T01:37:41;6.55;;;3.40;;
76636;SDS011;65532;52.124;5.480;2023-03-01T01:40:08;5.88;;;3.58;;
76636;SDS011;65532;52.124;5.480;2023-03-01T01:42:36;7.10;;;4.93;;
76636;SDS011;65532;52.124;5.480;2023-03-01T01:47:53;8.20;;;3.72;;
76636;SDS011;65532;52.124;5.480;2023-03-01T01:50:24;6.63;;;4.93;;
76636;SDS011;65532;52.124;5.480;2023-03-01T01:52:51;7.10;;;3.22;;
76636;SDS011;65532;52.124;5.480;2023-03-01T01:55:21;9.00;;;4.13;;
76636;SDS011;65532;52.124;5.480;2023-03-01T01:57:54;9.05;;;3.58;;
76636;SDS011;65532;52.124;5.480;2023-03-01T02:00:25;6.38;;;3.55;;
76636;SDS011;65532;52.124;5.480;2023-03-01T02:02:57;6.00;;;4.22;;
76636;SDS011;65532;52.124;5.480;2023-03-01T02:08:21;6.20;;;3.92;;
76636;SDS011;65532;52.124;5.480;2023-03-01T02:10:51;8.02;;;5.20;;
76636;SDS011;65532;52.124;5.480;2023-03-01T02:13:19;12.48;;;6.80;;
76636;SDS011;65532;52.124;5.480;2023-03-01T02:15:46;11.52;;;7.03;;
76636;SDS011;65532;52.124;5.480;2023-03-01T02:18:14;6.82;;;3.08;;
76636;SDS011;65532;52.124;5.480;2023-03-01T02:23:20;10.10;;;4.22;;
76636;SDS011;65532;52.124;5.480;2023-03-01T02:25:52;7.00;;;5.50;;
76636;SDS011;65532;52.124;5.480;2023-03-01T02:30:52;4.03;;;2.03;;
76636;SDS011;65532;52.124;5.480;2023-03-01T02:33:38;7.00;;;3.10;;
76636;SDS011;65532;52.124;5.480;2023-03-01T02:36:10;5.95;;;3.97;;
76636;SDS011;65532;52.124;5.480;2023-03-01T02:38:41;4.20;;;2.65;;
76636;SDS011;65532;52.124;5.480;2023-03-01T02:41:10;5.88;;;2.05;;
76636;SDS011;65532;52.124;5.480;2023-03-01T02:43:41;4.95;;;4.47;;
76636;SDS011;65532;52.124;5.480;2023-03-01T02:46:13;9.88;;;4.03;;
76636;SDS011;65532;52.124;5.480;2023-03-01T02:48:47;8.43;;;5.22;;
76636;SDS011;65532;52.124;5.480;2023-03-01T02:56:31;5.13;;;3.25;;
76636;SDS011;65532;52.124;5.480;2023-03-01T02:58:58;6.78;;;3.10;;
76636;SDS011;65532;52.124;5.480;2023-03-01T03:01:28;5.88;;;3.90;;
76636;SDS011;65532;52.124;5.480;2023-03-01T03:04:05;5.68;;;3.25;;
76636;SDS011;65532;52.124;5.480;2023-03-01T03:06:37;6.35;;;5.72;;
76636;SDS011;65532;52.124;5.480;2023-03-01T03:09:04;8.57;;;4.32;;
76636;SDS011;65532;52.124;5.480;2023-03-01T03:11:31;12.52;;;5.03;;
76636;SDS011;65532;52.124;5.480;2023-03-01T03:13:58;6.82;;;5.00;;
76636;SDS011;65532;52.124;5.480;2023-03-01T03:16:25;9.73;;;5.72;;
76636;SDS011;65532;52.124;5.480;2023-03-01T03:18:52;8.27;;;3.58;;
76636;SDS011;65532;52.124;5.480;2023-03-01T03:21:18;9.90;;;4.05;;
76636;SDS011;65532;52.124;5.480;2023-03-01T03:23:45;5.80;;;3.03;;
76636;SDS011;65532;52.124;5.480;2023-03-01T03:26:11;7.72;;;4.65;;
76636;SDS011;65532;52.124;5.480;2023-03-01T03:28:39;5.97;;;2.85;;
76636;SDS011;65532;52.124;5.480;2023-03-01T03:31:06;8.32;;;3.90;;
76636;SDS011;65532;52.124;5.480;2023-03-01T03:33:34;6.70;;;2.95;;
76636;SDS011;65532;52.124;5.480;2023-03-01T03:36:01;7.50;;;4.10;;
76636;SDS011;65532;52.124;5.480;2023-03-01T03:38:27;6.78;;;3.78;;
76636;SDS011;65532;52.124;5.480;2023-03-01T03:41:02;8.13;;;3.78;;
76636;SDS011;65532;52.124;5.480;2023-03-01T03:43:31;6.63;;;3.30;;
76636;SDS011;65532;52.124;5.480;2023-03-01T03:45:59;7.70;;;4.47;;
76636;SDS011;65532;52.124;5.480;2023-03-01T03:48:26;7.90;;;4.93;;
76636;SDS011;65532;52.124;5.480;2023-03-01T03:50:54;4.75;;;2.78;;
76636;SDS011;65532;52.124;5.480;2023-03-01T03:53:23;4.95;;;2.72;;
76636;SDS011;65532;52.124;5.480;2023-03-01T03:55:51;5.25;;;2.17;;
76636;SDS011;65532;52.124;5.480;2023-03-01T03:58:18;6.20;;;4.68;;
76636;SDS011;65532;52.124;5.480;2023-03-01T04:00:47;5.13;;;3.55;;
76636;SDS011;65532;52.124;5.480;2023-03-01T04:03:16;5.95;;;4.07;;
76636;SDS011;65532;52.124;5.480;2023-03-01T04:05:45;8.93;;;3.22;;
76636;SDS011;65532;52.124;5.480;2023-03-01T04:08:13;7.05;;;2.75;;
76636;SDS011;65532;52.124;5.480;2023-03-01T04:10:41;7.70;;;3.80;;
76636;SDS011;65532;52.124;5.480;2023-03-01T04:13:15;4.32;;;1.85;;
76636;SDS011;65532;52.124;5.480;2023-03-01T04:15:46;4.75;;;4.03;;
76636;SDS011;65532;52.124;5.480;2023-03-01T04:18:15;11.65;;;3.08;;
76636;SDS011;65532;52.124;5.480;2023-03-01T04:20:43;7.95;;;4.18;;
76636;SDS011;65532;52.124;5.480;2023-03-01T04:23:14;7.82;;;4.05;;
76636;SDS011;65532;52.124;5.480;2023-03-01T04:25:47;7.45;;;4.78;;
76636;SDS011;65532;52.124;5.480;2023-03-01T04:28:24;7.95;;;4.32;;
76636;SDS011;65532;52.124;5.480;2023-03-01T04:30:56;7.20;;;3.58;;
76636;SDS011;65532;52.124;5.480;2023-03-01T04:33:24;5.22;;;2.55;;
76636;SDS011;65532;52.124;5.480;2023-03-01T04:35:51;4.93;;;2.50;;
76636;SDS011;65532;52.124;5.480;2023-03-01T04:38:19;11.15;;;3.85;;
76636;SDS011;65532;52.124;5.480;2023-03-01T04:40:47;11.60;;;3.20;;
76636;SDS011;65532;52.124;5.480;2023-03-01T04:43:14;7.53;;;3.47;;
76636;SDS011;65532;52.124;5.480;2023-03-01T04:45:40;7.93;;;5.50;;
76636;SDS011;65532;52.124;5.480;2023-03-01T04:48:07;6.18;;;3.92;;
76636;SDS011;65532;52.124;5.480;2023-03-01T04:50:34;4.30;;;3.58;;
76636;SDS011;65532;52.124;5.480;2023-03-01T04:53:01;4.95;;;2.33;;
76636;SDS011;65532;52.124;5.480;2023-03-01T04:55:28;3.13;;;1.20;;
76636;SDS011;65532;52.124;5.480;2023-03-01T04:57:54;4.68;;;3.40;;
76636;SDS011;65532;52.124;5.480;2023-03-01T05:00:21;6.38;;;2.85;;
76636;SDS011;65532;52.124;5.480;2023-03-01T05:02:49;9.40;;;5.82;;
76636;SDS011;65532;52.124;5.480;2023-03-01T05:05:27;5.90;;;2.72;;
76636;SDS011;65532;52.124;5.480;2023-03-01T05:07:55;5.95;;;2.58;;
76636;SDS011;65532;52.124;5.480;2023-03-01T05:10:26;10.18;;;2.65;;
76636;SDS011;65532;52.124;5.480;2023-03-01T05:12:57;7.68;;;5.00;;
76636;SDS011;65532;52.124;5.480;2023-03-01T05:15:26;6.63;;;3.13;;
76636;SDS011;65532;52.124;5.480;2023-03-01T05:17:55;7.03;;;2.90;;
76636;SDS011;65532;52.124;5.480;2023-03-01T05:20:25;4.63;;;2.50;;
76636;SDS011;65532;52.124;5.480;2023-03-01T05:22:55;5.85;;;3.00;;
76636;SDS011;65532;52.124;5.480;2023-03-01T05:25:25;6.65;;;2.95;;
76636;SDS011;65532;52.124;5.480;2023-03-01T05:27:52;4.40;;;1.63;;
76636;SDS011;65532;52.124;5.480;2023-03-01T05:30:18;6.13;;;2.10;;
76636;SDS011;65532;52.124;5.480;2023-03-01T05:32:49;5.97;;;5.18;;
76636;SDS011;65532;52.124;5.480;2023-03-01T05:35:21;11.52;;;4.25;;
76636;SDS011;65532;52.124;5.480;2023-03-01T05:37:48;11.65;;;5.13;;
76636;SDS011;65532;52.124;5.480;2023-03-01T05:40:16;8.10;;;3.30;;
76636;SDS011;65532;52.124;5.480;2023-03-01T05:42:49;4.38;;;2.83;;
76636;SDS011;65532;52.124;5.480;2023-03-01T05:45:20;8.85;;;5.00;;
76636;SDS011;65532;52.124;5.480;2023-03-01T05:47:48;10.55;;;7.18;;
76636;SDS011;65532;52.124;5.480;2023-03-01T05:50:20;8.90;;;3.55;;
76636;SDS011;65532;52.124;5.480;2023-03-01T05:52:56;10.80;;;5.85;;
76636;SDS011;65532;52.124;5.480;2023-03-01T05:55:25;8.18;;;3.92;;
76636;SDS011;65532;52.124;5.480;2023-03-01T05:57:54;6.30;;;3.40;;
76636;SDS011;65532;52.124;5.480;2023-03-01T06:00:21;10.32;;;4.80;;
76636;SDS011;65532;52.124;5.480;2023-03-01T06:02:50;6.50;;;2.92;;
76636;SDS011;65532;52.124;5.480;2023-03-01T06:05:18;5.80;;;2.63;;
76636;SDS011;65532;52.124;5.480;2023-03-01T06:07:44;9.52;;;3.65;;
76636;SDS011;65532;52.124;5.480;2023-03-01T06:10:11;8.48;;;4.65;;
76636;SDS011;65532;52.124;5.480;2023-03-01T06:12:39;6.43;;;2.70;;
76636;SDS011;65532;52.124;5.480;2023-03-01T06:15:07;7.57;;;3.90;;
76636;SDS011;65532;52.124;5.480;2023-03-01T06:17:36;7.60;;;2.33;;
76636;SDS011;65532;52.124;5.480;2023-03-01T06:20:05;8.13;;;4.75;;
76636;SDS011;65532;52.124;5.480;2023-03-01T06:22:35;7.85;;;2.50;;
76636;SDS011;65532;52.124;5.480;2023-03-01T06:25:02;6.72;;;4.47;;
76636;SDS011;65532;52.124;5.480;2023-03-01T06:27:29;6.78;;;2.17;;
76636;SDS011;65532;52.124;5.480;2023-03-01T06:29:55;6.82;;;3.45;;
76636;SDS011;65532;52.124;5.480;2023-03-01T06:32:22;6.40;;;4.13;;
76636;SDS011;65532;52.124;5.480;2023-03-01T06:34:49;6.97;;;3.40;;
76636;SDS011;65532;52.124;5.480;2023-03-01T06:37:16;9.93;;;4.22;;
76636;SDS011;65532;52.124;5.480;2023-03-01T06:39:42;5.63;;;4.50;;
76636;SDS011;65532;52.124;5.480;2023-03-01T06:42:09;8.45;;;3.22;;
76636;SDS011;65532;52.124;5.480;2023-03-01T06:44:36;4.22;;;2.05;;
76636;SDS011;65532;52.124;5.480;2023-03-01T06:47:03;8.65;;;4.95;;
76636;SDS011;65532;52.124;5.480;2023-03-01T06:49:31;7.25;;;2.35;;
76636;SDS011;65532;52.124;5.480;2023-03-01T06:51:58;3.33;;;2.33;;
76636;SDS011;65532;52.124;5.480;2023-03-01T06:54:24;5.80;;;3.17;;
76636;SDS011;65532;52.124;5.480;2023-03-01T06:56:51;5.97;;;3.53;;
76636;SDS011;65532;52.124;5.480;2023-03-01T06:59:18;4.97;;;2.28;;
76636;SDS011;65532;52.124;5.480;2023-03-01T07:01:45;7.38;;;3.22;;
76636;SDS011;65532;52.124;5.480;2023-03-01T07:04:12;7.50;;;2.72;;
76636;SDS011;65532;52.124;5.480;2023-03-01T07:06:39;5.00;;;2.53;;
76636;SDS011;65532;52.124;5.480;2023-03-01T07:09:06;10.00;;;5.88;;
76636;SDS011;65532;52.124;5.480;2023-03-01T07:11:33;7.50;;;4.93;;
76636;SDS011;65532;52.124;5.480;2023-03-01T07:13:59;12.68;;;6.20;;
76636;SDS011;65532;52.124;5.480;2023-03-01T07:16:26;5.05;;;3.20;;
76636;SDS011;65532;52.124;5.480;2023-03-01T07:18:53;8.82;;;4.18;;
76636;SDS011;65532;52.124;5.480;2023-03-01T07:21:19;13.90;;;5.30;;
76636;SDS011;65532;52.124;5.480;2023-03-01T07:23:47;6.85;;;4.10;;
76636;SDS011;65532;52.124;5.480;2023-03-01T07:26:14;9.18;;;4.00;;
76636;SDS011;65532;52.124;5.480;2023-03-01T07:28:40;11.32;;;4.25;;
76636;SDS011;65532;52.124;5.480;2023-03-01T07:31:07;10.25;;;3.85;;
76636;SDS011;65532;52.124;5.480;2023-03-01T07:33:33;7.25;;;4.90;;
76636;SDS011;65532;52.124;5.480;2023-03-01T07:36:01;7.43;;;2.85;;
76636;SDS011;65532;52.124;5.480;2023-03-01T07:38:31;10.07;;;3.47;;
76636;SDS011;65532;52.124;5.480;2023-03-01T07:41:01;10.98;;;6.97;;
76636;SDS011;65532;52.124;5.480;2023-03-01T07:43:29;7.47;;;4.97;;
76636;SDS011;65532;52.124;5.480;2023-03-01T07:46:03;9.00;;;5.75;;
76636;SDS011;65532;52.124;5.480;2023-03-01T07:48:30;8.65;;;5.60;;
76636;SDS011;65532;52.124;5.480;2023-03-01T07:50:58;12.82;;;8.18;;
76636;SDS011;65532;52.124;5.480;2023-03-01T07:53:27;9.75;;;5.70;;
76636;SDS011;65532;52.124;5.480;2023-03-01T07:56:04;10.40;;;6.55;;
76636;SDS011;65532;52.124;5.480;2023-03-01T07:58:35;11.85;;;6.15;;
76636;SDS011;65532;52.124;5.480;2023-03-01T08:01:03;14.20;;;7.45;;
76636;SDS011;65532;52.124;5.480;2023-03-01T08:03:32;16.75;;;7.68;;
76636;SDS011;65532;52.124;5.480;2023-03-01T08:05:59;13.13;;;6.47;;
76636;SDS011;65532;52.124;5.480;2023-03-01T08:08:27;11.40;;;7.05;;
76636;SDS011;65532;52.124;5.480;2023-03-01T08:10:58;11.88;;;6.47;;
76636;SDS011;65532;52.124;5.480;2023-03-01T08:13:25;11.30;;;6.38;;
76636;SDS011;65532;52.124;5.480;2023-03-01T08:15:52;13.85;;;5.45;;
76636;SDS011;65532;52.124;5.480;2023-03-01T08:18:20;10.90;;;6.45;;
76636;SDS011;65532;52.124;5.480;2023-03-01T08:20:47;11.25;;;7.07;;
76636;SDS011;65532;52.124;5.480;2023-03-01T08:23:14;9.90;;;5.85;;
76636;SDS011;65532;52.124;5.480;2023-03-01T08:25:40;12.73;;;6.85;;
76636;SDS011;65532;52.124;5.480;2023-03-01T08:28:07;10.48;;;6.07;;
76636;SDS011;65532;52.124;5.480;2023-03-01T08:30:34;9.80;;;5.22;;
76636;SDS011;65532;52.124;5.480;2023-03-01T08:33:00;9.65;;;5.95;;
76636;SDS011;65532;52.124;5.480;2023-03-01T08:35:27;10.52;;;5.50;;
76636;SDS011;65532;52.124;5.480;2023-03-01T08:37:53;9.40;;;5.13;;
76636;SDS011;65532;52.124;5.480;2023-03-01T08:40:20;8.52;;;4.43;;
76636;SDS011;65532;52.124;5.480;2023-03-01T08:42:46;10.02;;;5.07;;
76636;SDS011;65532;52.124;5.480;2023-03-01T08:45:13;9.55;;;4.70;;
76636;SDS011;65532;52.124;5.480;2023-03-01T08:47:44;9.07;;;4.95;;
76636;SDS011;65532;52.124;5.480;2023-03-01T08:50:11;7.22;;;4.45;;
76636;SDS011;65532;52.124;5.480;2023-03-01T08:52:38;9.32;;;4.18;;
76636;SDS011;65532;52.124;5.480;2023-03-01T08:55:05;8.98;;;3.90;;
76636;SDS011;65532;52.124;5.480;2023-03-01T08:57:32;9.65;;;5.70;;
76636;SDS011;65532;52.124;5.480;2023-03-01T08:59:58;7.15;;;5.15;;
76636;SDS011;65532;52.124;5.480;2023-03-01T09:02:24;7.97;;;3.95;;
76636;SDS011;65532;52.124;5.480;2023-03-01T09:04:51;8.18;;;3.63;;
76636;SDS011;65532;52.124;5.480;2023-03-01T09:07:17;6.85;;;4.30;;
76636;SDS011;65532;52.124;5.480;2023-03-01T09:09:44;7.22;;;3.20;;
76636;SDS011;65532;52.124;5.480;2023-03-01T09:12:11;7.43;;;3.00;;
76636;SDS011;65532;52.124;5.480;2023-03-01T09:14:37;8.07;;;5.07;;
76636;SDS011;65532;52.124;5.480;2023-03-01T09:17:04;8.00;;;5.47;;
76636;SDS011;65532;52.124;5.480;2023-03-01T09:19:31;6.00;;;3.42;;
76636;SDS011;65532;52.124;5.480;2023-03-01T09:21:58;6.68;;;3.50;;
76636;SDS011;65532;52.124;5.480;2023-03-01T09:24:24;7.13;;;3.13;;
76636;SDS011;65532;52.124;5.480;2023-03-01T09:26:55;8.13;;;4.88;;
76636;SDS011;65532;52.124;5.480;2023-03-01T09:29:22;7.60;;;3.83;;
76636;SDS011;65532;52.124;5.480;2023-03-01T09:31:49;6.57;;;3.13;;
76636;SDS011;65532;52.124;5.480;2023-03-01T09:34:16;7.35;;;3.30;;
76636;SDS011;65532;52.124;5.480;2023-03-01T09:36:48;8.27;;;2.45;;
76636;SDS011;65532;52.124;5.480;2023-03-01T09:39:14;6.45;;;4.10;;
76636;SDS011;65532;52.124;5.480;2023-03-01T09:41:59;7.35;;;2.70;;
76636;SDS011;65532;52.124;5.480;2023-03-01T09:44:45;6.70;;;3.90;;
76636;SDS011;65532;52.124;5.480;2023-03-01T09:47:19;4.95;;;1.83;;
76636;SDS011;65532;52.124;5.480;2023-03-01T09:49:58;5.22;;;1.88;;
76636;SDS011;65532;52.124;5.480;2023-03-01T09:52:33;6.93;;;2.80;;
76636;SDS011;65532;52.124;5.480;2023-03-01T09:55:00;6.50;;;2.45;;
76636;SDS011;65532;52.124;5.480;2023-03-01T10:00:40;6.40;;;3.65;;
76636;SDS011;65532;52.124;5.480;2023-03-01T10:03:03;5.70;;;2.08;;
76636;SDS011;65532;52.124;5.480;2023-03-01T10:08:15;3.88;;;2.55;;
76636;SDS011;65532;52.124;5.480;2023-03-01T10:10:55;6.97;;;2.25;;
76636;SDS011;65532;52.124;5.480;2023-03-01T10:13:37;4.70;;;2.88;;
76636;SDS011;65532;52.124;5.480;2023-03-01T10:16:16;5.18;;;2.60;;
76636;SDS011;65532;52.124;5.480;2023-03-01T10:18:50;3.38;;;1.92;;
76636;SDS011;65532;52.124;5.480;2023-03-01T10:21:20;4.80;;;3.50;;
76636;SDS011;65532;52.124;5.480;2023-03-01T10:23:49;5.35;;;3.13;;
76636;SDS011;65532;52.124;5.480;2023-03-01T10:26:22;4.63;;;1.67;;
76636;SDS011;65532;52.124;5.480;2023-03-01T10:29:03;4.90;;;1.48;;
76636;SDS011;65532;52.124;5.480;2023-03-01T10:31:38;6.13;;;1.75;;
76636;SDS011;65532;52.124;5.480;2023-03-01T10:34:20;4.45;;;1.45;;
76636;SDS011;65532;52.124;5.480;2023-03-01T10:37:04;5.03;;;1.65;;
76636;SDS011;65532;52.124;5.480;2023-03-01T10:39:55;9.18;;;1.50;;
76636;SDS011;65532;52.124;5.480;2023-03-01T10:42:57;4.22;;;1.80;;
76636;SDS011;65532;52.124;5.480;2023-03-01T10:50:31;3.25;;;1.50;;
76636;SDS011;65532;52.124;5.480;2023-03-01T10:52:59;3.70;;;1.45;;
76636;SDS011;65532;52.124;5.480;2023-03-01T10:55:35;8.50;;;1.10;;
76636;SDS011;65532;52.124;5.480;2023-03-01T11:00:55;3.78;;;2.33;;
76636;SDS011;65532;52.124;5.480;2023-03-01T11:03:28;5.05;;;1.33;;
76636;SDS011;65532;52.124;5.480;2023-03-01T11:08:48;6.50;;;2.40;;
76636;SDS011;65532;52.124;5.480;2023-03-01T11:11:17;3.65;;;1.40;;
76636;SDS011;65532;52.124;5.480;2023-03-01T11:17:05;3.63;;;1.20;;
76636;SDS011;65532;52.124;5.480;2023-03-01T11:19:39;3.20;;;1.40;;
76636;SDS011;65532;52.124;5.480;2023-03-01T11:22:12;2.35;;;1.33;;
76636;SDS011;65532;52.124;5.480;2023-03-01T11:24:52;4.53;;;1.25;;
76636;SDS011;65532;52.124;5.480;2023-03-01T11:27:36;4.20;;;1.67;;
76636;SDS011;65532;52.124;5.480;2023-03-01T11:35:50;3.92;;;1.38;;
76636;SDS011;65532;52.124;5.480;2023-03-01T11:38:24;5.55;;;1.90;;
76636;SDS011;65532;52.124;5.480;2023-03-01T11:58:03;4.25;;;1.38;;
76636;SDS011;65532;52.124;5.480;2023-03-01T12:06:22;4.20;;;2.40;;
76636;SDS011;65532;52.124;5.480;2023-03-01T12:08:57;5.32;;;1.45;;
76636;SDS011;65532;52.124;5.480;2023-03-01T12:20:09;2.88;;;0.98;;
76636;SDS011;65532;52.124;5.480;2023-03-01T12:22:47;5.65;;;2.05;;
76636;SDS011;65532;52.124;5.480;2023-03-01T12:26:06;4.20;;;2.10;;
76636;SDS011;65532;52.124;5.480;2023-03-01T12:29:07;5.18;;;2.08;;
76636;SDS011;65532;52.124;5.480;2023-03-01T12:40:15;3.80;;;1.90;;
76636;SDS011;65532;52.124;5.480;2023-03-01T12:45:54;7.15;;;1.33;;
76636;SDS011;65532;52.124;5.480;2023-03-01T12:51:18;5.32;;;2.38;;
76636;SDS011;65532;52.124;5.480;2023-03-01T12:53:50;5.05;;;1.52;;
76636;SDS011;65532;52.124;5.480;2023-03-01T12:56:20;3.75;;;1.60;;
76636;SDS011;65532;52.124;5.480;2023-03-01T13:01:53;4.18;;;1.90;;
76636;SDS011;65532;52.124;5.480;2023-03-01T13:07:28;5.28;;;1.50;;
76636;SDS011;65532;52.124;5.480;2023-03-01T13:17:50;4.43;;;2.05;;
76636;SDS011;65532;52.124;5.480;2023-03-01T13:20:20;2.97;;;1.25;;
76636;SDS011;65532;52.124;5.480;2023-03-01T13:22:59;4.55;;;1.30;;
76636;SDS011;65532;52.124;5.480;2023-03-01T13:25:28;3.20;;;2.05;;
76636;SDS011;65532;52.124;5.480;2023-03-01T13:31:02;3.65;;;0.95;;
76636;SDS011;65532;52.124;5.480;2023-03-01T13:49:43;4.93;;;1.77;;
76636;SDS011;65532;52.124;5.480;2023-03-01T13:54:58;3.17;;;1.67;;
76636;SDS011;65532;52.124;5.480;2023-03-01T13:57:26;3.38;;;1.63;;
76636;SDS011;65532;52.124;5.480;2023-03-01T14:00:05;3.42;;;0.93;;
76636;SDS011;65532;52.124;5.480;2023-03-01T14:02:33;6.07;;;2.03;;
76636;SDS011;65532;52.124;5.480;2023-03-01T14:05:02;5.50;;;1.88;;
76636;SDS011;65532;52.124;5.480;2023-03-01T14:07:29;4.53;;;1.98;;
76636;SDS011;65532;52.124;5.480;2023-03-01T14:09:58;3.75;;;1.63;;
76636;SDS011;65532;52.124;5.480;2023-03-01T14:15:57;3.53;;;1.25;;
76636;SDS011;65532;52.124;5.480;2023-03-01T14:18:33;4.00;;;2.10;;
76636;SDS011;65532;52.124;5.480;2023-03-01T14:21:08;7.18;;;2.72;;
76636;SDS011;65532;52.124;5.480;2023-03-01T14:23:35;3.85;;;0.88;;
76636;SDS011;65532;52.124;5.480;2023-03-01T14:26:05;4.28;;;1.65;;
76636;SDS011;65532;52.124;5.480;2023-03-01T14:28:35;5.80;;;2.42;;
76636;SDS011;65532;52.124;5.480;2023-03-01T14:34:22;3.20;;;1.42;;
76636;SDS011;65532;52.124;5.480;2023-03-01T14:36:50;4.78;;;2.08;;
76636;SDS011;65532;52.124;5.480;2023-03-01T14:39:23;5.47;;;1.48;;
76636;SDS011;65532;52.124;5.480;2023-03-01T14:41:51;4.28;;;1.45;;
76636;SDS011;65532;52.124;5.480;2023-03-01T14:44:22;4.28;;;1.70;;
76636;SDS011;65532;52.124;5.480;2023-03-01T14:46:54;6.55;;;1.25;;
76636;SDS011;65532;52.124;5.480;2023-03-01T14:49:23;5.40;;;2.58;;
76636;SDS011;65532;52.124;5.480;2023-03-01T14:51:55;4.22;;;2.15;;
76636;SDS011;65532;52.124;5.480;2023-03-01T14:54:27;5.55;;;2.38;;
76636;SDS011;65532;52.124;5.480;2023-03-01T14:56:58;5.78;;;1.30;;
76636;SDS011;65532;52.124;5.480;2023-03-01T14:59:26;3.63;;;1.10;;
76636;SDS011;65532;52.124;5.480;2023-03-01T15:01:53;4.57;;;2.47;;
76636;SDS011;65532;52.124;5.480;2023-03-01T15:04:23;4.82;;;1.25;;
76636;SDS011;65532;52.124;5.480;2023-03-01T15:06:52;4.07;;;2.05;;
76636;SDS011;65532;52.124;5.480;2023-03-01T15:09:20;4.93;;;2.65;;
76636;SDS011;65532;52.124;5.480;2023-03-01T15:11:48;4.45;;;3.13;;
76636;SDS011;65532;52.124;5.480;2023-03-01T15:14:28;4.30;;;2.08;;
76636;SDS011;65532;52.124;5.480;2023-03-01T15:17:29;5.45;;;2.58;;
76636;SDS011;65532;52.124;5.480;2023-03-01T15:20:03;4.22;;;2.20;;
76636;SDS011;65532;52.124;5.480;2023-03-01T15:22:32;5.65;;;2.88;;
76636;SDS011;65532;52.124;5.480;2023-03-01T15:24:58;4.95;;;1.98;;
76636;SDS011;65532;52.124;5.480;2023-03-01T15:27:25;3.40;;;1.27;;
76636;SDS011;65532;52.124;5.480;2023-03-01T15:29:54;4.32;;;3.00;;
76636;SDS011;65532;52.124;5.480;2023-03-01T15:34:58;7.80;;;3.22;;
76636;SDS011;65532;52.124;5.480;2023-03-01T15:40:19;5.22;;;2.42;;
76636;SDS011;65532;52.124;5.480;2023-03-01T15:42:57;4.28;;;1.98;;
76636;SDS011;65532;52.124;5.480;2023-03-01T15:45:29;3.58;;;2.08;;
76636;SDS011;65532;52.124;5.480;2023-03-01T15:48:14;3.58;;;1.45;;
76636;SDS011;65532;52.124;5.480;2023-03-01T15:50:44;4.93;;;2.38;;
76636;SDS011;65532;52.124;5.480;2023-03-01T15:53:21;4.40;;;2.05;;
76636;SDS011;65532;52.124;5.480;2023-03-01T15:55:47;4.95;;;2.47;;
76636;SDS011;65532;52.124;5.480;2023-03-01T15:58:20;4.18;;;1.67;;
76636;SDS011;65532;52.124;5.480;2023-03-01T16:00:49;5.15;;;2.63;;
76636;SDS011;65532;52.124;5.480;2023-03-01T16:03:27;4.40;;;2.22;;
76636;SDS011;65532;52.124;5.480;2023-03-01T16:05:55;5.78;;;1.50;;
76636;SDS011;65532;52.124;5.480;2023-03-01T16:08:22;5.38;;;1.48;;
76636;SDS011;65532;52.124;5.480;2023-03-01T16:10:48;7.03;;;2.45;;
76636;SDS011;65532;52.124;5.480;2023-03-01T16:13:17;6.30;;;1.52;;
76636;SDS011;65532;52.124;5.480;2023-03-01T16:15:44;3.47;;;1.85;;
76636;SDS011;65532;52.124;5.480;2023-03-01T16:18:10;6.10;;;3.13;;
76636;SDS011;65532;52.124;5.480;2023-03-01T16:20:38;9.68;;;2.38;;
76636;SDS011;65532;52.124;5.480;2023-03-01T16:23:06;5.78;;;1.95;;
76636;SDS011;65532;52.124;5.480;2023-03-01T16:25:34;4.57;;;3.33;;
76636;SDS011;65532;52.124;5.480;2023-03-01T16:28:02;4.55;;;1.73;;
76636;SDS011;65532;52.124;5.480;2023-03-01T16:30:34;5.25;;;1.50;;
76636;SDS011;65532;52.124;5.480;2023-03-01T16:33:03;8.07;;;2.47;;
76636;SDS011;65532;52.124;5.480;2023-03-01T16:35:50;10.18;;;2.30;;
76636;SDS011;65532;52.124;5.480;2023-03-01T16:38:17;6.43;;;2.13;;
76636;SDS011;65532;52.124;5.480;2023-03-01T16:40:46;6.15;;;2.53;;
76636;SDS011;65532;52.124;5.480;2023-03-01T16:43:14;5.10;;;2.65;;
76636;SDS011;65532;52.124;5.480;2023-03-01T16:45:41;7.10;;;2.40;;
76636;SDS011;65532;52.124;5.480;2023-03-01T16:48:10;7.90;;;1.73;;
76636;SDS011;65532;52.124;5.480;2023-03-01T16:50:37;6.30;;;3.30;;
76636;SDS011;65532;52.124;5.480;2023-03-01T16:53:04;5.47;;;1.50;;
76636;SDS011;65532;52.124;5.480;2023-03-01T16:55:31;4.85;;;1.63;;
76636;SDS011;65532;52.124;5.480;2023-03-01T16:57:57;6.18;;;2.47;;
76636;SDS011;65532;52.124;5.480;2023-03-01T17:00:24;5.07;;;2.63;;
76636;SDS011;65532;52.124;5.480;2023-03-01T17:02:51;5.53;;;3.05;;
76636;SDS011;65532;52.124;5.480;2023-03-01T17:05:18;8.27;;;3.28;;
76636;SDS011;65532;52.124;5.480;2023-03-01T17:07:47;7.03;;;2.35;;
76636;SDS011;65532;52.124;5.480;2023-03-01T17:10:13;4.43;;;2.20;;
76636;SDS011;65532;52.124;5.480;2023-03-01T17:12:40;5.05;;;2.45;;
76636;SDS011;65532;52.124;5.480;2023-03-01T17:15:06;3.65;;;1.45;;
76636;SDS011;65532;52.124;5.480;2023-03-01T17:17:33;4.68;;;2.53;;